sensor_id;sensor_type;location;lat;lon;timestamp;P1;durP1;ratioP1;P2;durP2;ratioP2
4317;SDS011;2172;53.576;9.934;2023-02-23T00:01:33;32.97;;;20.50;;
4317;SDS011;2172;53.576;9.934;2023-02-23T00:04:01;28.17;;;19.23;;
4317;SDS011;2172;53.576;9.934;2023-02-23T00:06:30;35.00;;;21.50;;
4317;SDS011;2172;53.576;9.934;2023-02-23T00:08:59;31.20;;;21.70;;
4317;SDS011;2172;53.576;9.934;2023-02-23T00:11:32;34.50;;;21.23;;
4317;SDS011;2172;53.576;9.934;2023-02-23T00:13:59;35.17;;;21.77;;
4317;SDS011;2172;53.576;9.934;2023-02-23T00:16:27;35.37;;;20.20;;
4317;SDS011;2172;53.576;9.934;2023-02-23T00:18:55;37.40;;;21.03;;
4317;SDS011;2172;53.576;9.934;2023-02-23T00:21:25;33.37;;;20.43;;
4317;SDS011;2172;53.576;9.934;2023-02-23T00:23:54;36.70;;;21.37;;
4317;SDS011;2172;53.576;9.934;2023-02-23T00:26:23;35.07;;;21.00;;
4317;SDS011;2172;53.576;9.934;2023-02-23T00:28:56;37.63;;;20.50;;
4317;SDS011;2172;53.576;9.934;2023-02-23T00:31:27;36.87;;;21.80;;
4317;SDS011;2172;53.576;9.934;2023-02-23T00:33:55;33.70;;;21.77;;
4317;SDS011;2172;53.576;9.934;2023-02-23T00:36:25;39.27;;;22.40;;
4317;SDS011;2172;53.576;9.934;2023-02-23T00:38:54;32.83;;;20.23;;
4317;SDS011;2172;53.576;9.934;2023-02-23T00:41:22;39.40;;;22.33;;
4317;SDS011;2172;53.576;9.934;2023-02-23T00:43:53;37.80;;;21.90;;
4317;SDS011;2172;53.576;9.934;2023-02-23T00:46:23;33.80;;;22.10;;
4317;SDS011;2172;53.576;9.934;2023-02-23T00:48:52;40.33;;;21.87;;
4317;SDS011;2172;53.576;9.934;2023-02-23T00:51:21;38.00;;;24.83;;
4317;SDS011;2172;53.576;9.934;2023-02-23T00:53:52;40.13;;;22.53;;
4317;SDS011;2172;53.576;9.934;2023-02-23T00:56:20;40.33;;;21.20;;
4317;SDS011;2172;53.576;9.934;2023-02-23T00:58:48;38.87;;;22.27;;
4317;SDS011;2172;53.576;9.934;2023-02-23T01:01:17;39.70;;;23.20;;
4317;SDS011;2172;53.576;9.934;2023-02-23T01:03:45;38.50;;;22.43;;
4317;SDS011;2172;53.576;9.934;2023-02-23T01:06:13;38.47;;;22.37;;
4317;SDS011;2172;53.576;9.934;2023-02-23T01:08:42;38.10;;;22.80;;
4317;SDS011;2172;53.576;9.934;2023-02-23T01:11:11;37.63;;;21.30;;
4317;SDS011;2172;53.576;9.934;2023-02-23T01:13:40;40.50;;;22.67;;
4317;SDS011;2172;53.576;9.934;2023-02-23T01:16:09;38.07;;;22.53;;
4317;SDS011;2172;53.576;9.934;2023-02-23T01:18:39;40.27;;;24.23;;
4317;SDS011;2172;53.576;9.934;2023-02-23T01:21:13;45.57;;;23.70;;
4317;SDS011;2172;53.576;9.934;2023-02-23T01:23:41;43.50;;;24.07;;
4317;SDS011;2172;53.576;9.934;2023-02-23T01:26:15;39.13;;;21.63;;
4317;SDS011;2172;53.576;9.934;2023-02-23T01:28:43;37.27;;;22.80;;
4317;SDS011;2172;53.576;9.934;2023-02-23T01:31:13;37.37;;;22.97;;
4317;SDS011;2172;53.576;9.934;2023-02-23T01:33:42;37.60;;;22.77;;
4317;SDS011;2172;53.576;9.934;2023-02-23T01:36:10;41.27;;;23.30;;
4317;SDS011;2172;53.576;9.934;2023-02-23T01:38:38;40.10;;;21.70;;
4317;SDS011;2172;53.576;9.934;2023-02-23T01:41:06;39.93;;;22.33;;
4317;SDS011;2172;53.576;9.934;2023-02-23T01:43:33;39.50;;;22.80;;
4317;SDS011;2172;53.576;9.934;2023-02-23T01:46:01;40.60;;;23.10;;
4317;SDS011;2172;53.576;9.934;2023-02-23T01:48:30;38.07;;;22.60;;
4317;SDS011;2172;53.576;9.934;2023-02-23T01:51:02;41.67;;;22.77;;
4317;SDS011;2172;53.576;9.934;2023-02-23T01:53:32;44.97;;;23.53;;
4317;SDS011;2172;53.576;9.934;2023-02-23T01:56:02;41.13;;;22.87;;
4317;SDS011;2172;53.576;9.934;2023-02-23T01:58:36;36.17;;;21.27;;
4317;SDS011;2172;53.576;9.934;2023-02-23T02:01:04;40.77;;;23.00;;
4317;SDS011;2172;53.576;9.934;2023-02-23T02:03:32;47.10;;;24.53;;
4317;SDS011;2172;53.576;9.934;2023-02-23T02:06:04;45.97;;;24.27;;
4317;SDS011;2172;53.576;9.934;2023-02-23T02:08:37;38.70;;;23.40;;
4317;SDS011;2172;53.576;9.934;2023-02-23T02:11:09;41.97;;;21.97;;
4317;SDS011;2172;53.576;9.934;2023-02-23T02:13:50;41.67;;;22.03;;
4317;SDS011;2172;53.576;9.934;2023-02-23T02:19:16;43.00;;;23.30;;
4317;SDS011;2172;53.576;9.934;2023-02-23T02:22:27;39.07;;;21.50;;
4317;SDS011;2172;53.576;9.934;2023-02-23T02:34:32;39.87;;;21.43;;
4317;SDS011;2172;53.576;9.934;2023-02-23T02:37:18;38.97;;;23.37;;
4317;SDS011;2172;53.576;9.934;2023-02-23T02:39:54;39.77;;;24.30;;
4317;SDS011;2172;53.576;9.934;2023-02-23T02:42:42;41.07;;;22.40;;
4317;SDS011;2172;53.576;9.934;2023-02-23T02:45:36;37.47;;;23.80;;
4317;SDS011;2172;53.576;9.934;2023-02-23T02:48:11;47.33;;;24.50;;
4317;SDS011;2172;53.576;9.934;2023-02-23T02:50:48;41.97;;;23.13;;
4317;SDS011;2172;53.576;9.934;2023-02-23T02:53:22;38.53;;;22.33;;
4317;SDS011;2172;53.576;9.934;2023-02-23T02:55:53;43.53;;;24.80;;
4317;SDS011;2172;53.576;9.934;2023-02-23T02:58:24;46.10;;;24.10;;
4317;SDS011;2172;53.576;9.934;2023-02-23T03:00:52;42.47;;;25.67;;
4317;SDS011;2172;53.576;9.934;2023-02-23T03:03:38;36.57;;;22.93;;
4317;SDS011;2172;53.576;9.934;2023-02-23T03:06:25;42.53;;;23.37;;
4317;SDS011;2172;53.576;9.934;2023-02-23T03:09:21;37.87;;;22.80;;
4317;SDS011;2172;53.576;9.934;2023-02-23T03:12:18;41.07;;;24.70;;
4317;SDS011;2172;53.576;9.934;2023-02-23T03:15:13;41.30;;;22.77;;
4317;SDS011;2172;53.576;9.934;2023-02-23T03:18:08;40.73;;;23.90;;
4317;SDS011;2172;53.576;9.934;2023-02-23T03:20:59;40.27;;;22.67;;
4317;SDS011;2172;53.576;9.934;2023-02-23T03:23:49;41.17;;;24.03;;
4317;SDS011;2172;53.576;9.934;2023-02-23T03:26:46;39.20;;;22.70;;
4317;SDS011;2172;53.576;9.934;2023-02-23T03:29:35;44.57;;;24.23;;
4317;SDS011;2172;53.576;9.934;2023-02-23T03:32:25;37.70;;;23.70;;
4317;SDS011;2172;53.576;9.934;2023-02-23T03:35:17;39.97;;;23.27;;
4317;SDS011;2172;53.576;9.934;2023-02-23T03:38:07;41.60;;;22.20;;
4317;SDS011;2172;53.576;9.934;2023-02-23T03:40:54;36.30;;;22.73;;
4317;SDS011;2172;53.576;9.934;2023-02-23T03:43:46;37.03;;;22.43;;
4317;SDS011;2172;53.576;9.934;2023-02-23T03:46:32;38.40;;;22.70;;
4317;SDS011;2172;53.576;9.934;2023-02-23T03:49:19;43.93;;;24.83;;
4317;SDS011;2172;53.576;9.934;2023-02-23T03:52:08;39.07;;;22.13;;
4317;SDS011;2172;53.576;9.934;2023-02-23T03:54:57;41.57;;;24.20;;
4317;SDS011;2172;53.576;9.934;2023-02-23T03:57:44;47.93;;;26.03;;
4317;SDS011;2172;53.576;9.934;2023-02-23T04:00:33;44.73;;;23.90;;
4317;SDS011;2172;53.576;9.934;2023-02-23T04:03:22;41.33;;;23.87;;
4317;SDS011;2172;53.576;9.934;2023-02-23T04:06:10;44.70;;;24.50;;
4317;SDS011;2172;53.576;9.934;2023-02-23T04:08:57;40.77;;;24.77;;
4317;SDS011;2172;53.576;9.934;2023-02-23T04:11:45;46.03;;;25.90;;
4317;SDS011;2172;53.576;9.934;2023-02-23T04:14:35;43.47;;;23.27;;
4317;SDS011;2172;53.576;9.934;2023-02-23T04:17:05;44.17;;;25.90;;
4317;SDS011;2172;53.576;9.934;2023-02-23T04:19:33;44.97;;;24.33;;
4317;SDS011;2172;53.576;9.934;2023-02-23T04:22:00;44.80;;;25.80;;
4317;SDS011;2172;53.576;9.934;2023-02-23T04:24:28;45.90;;;27.40;;
4317;SDS011;2172;53.576;9.934;2023-02-23T04:26:55;39.13;;;25.30;;
4317;SDS011;2172;53.576;9.934;2023-02-23T04:29:22;51.37;;;27.00;;
4317;SDS011;2172;53.576;9.934;2023-02-23T04:31:50;47.10;;;25.33;;
4317;SDS011;2172;53.576;9.934;2023-02-23T04:34:19;41.50;;;24.43;;
4317;SDS011;2172;53.576;9.934;2023-02-23T04:36:47;46.37;;;25.60;;
4317;SDS011;2172;53.576;9.934;2023-02-23T04:39:15;48.63;;;26.07;;
4317;SDS011;2172;53.576;9.934;2023-02-23T04:41:42;43.90;;;25.20;;
4317;SDS011;2172;53.576;9.934;2023-02-23T04:44:13;43.70;;;24.73;;
4317;SDS011;2172;53.576;9.934;2023-02-23T04:46:40;44.53;;;26.50;;
4317;SDS011;2172;53.576;9.934;2023-02-23T04:49:08;42.87;;;25.63;;
4317;SDS011;2172;53.576;9.934;2023-02-23T04:51:37;43.70;;;25.93;;
4317;SDS011;2172;53.576;9.934;2023-02-23T04:54:04;48.10;;;25.03;;
4317;SDS011;2172;53.576;9.934;2023-02-23T04:56:32;51.63;;;27.40;;
4317;SDS011;2172;53.576;9.934;2023-02-23T04:58:59;42.00;;;24.10;;
4317;SDS011;2172;53.576;9.934;2023-02-23T05:01:27;43.63;;;25.60;;
4317;SDS011;2172;53.576;9.934;2023-02-23T05:03:55;44.40;;;26.50;;
4317;SDS011;2172;53.576;9.934;2023-02-23T05:06:22;47.23;;;25.87;;
4317;SDS011;2172;53.576;9.934;2023-02-23T05:08:51;45.80;;;26.90;;
4317;SDS011;2172;53.576;9.934;2023-02-23T05:11:19;43.13;;;25.50;;
4317;SDS011;2172;53.576;9.934;2023-02-23T05:13:47;41.30;;;24.13;;
4317;SDS011;2172;53.576;9.934;2023-02-23T05:16:14;52.27;;;27.53;;
4317;SDS011;2172;53.576;9.934;2023-02-23T05:18:42;45.17;;;25.97;;
4317;SDS011;2172;53.576;9.934;2023-02-23T05:21:09;43.87;;;23.90;;
4317;SDS011;2172;53.576;9.934;2023-02-23T05:23:37;41.57;;;25.40;;
4317;SDS011;2172;53.576;9.934;2023-02-23T05:26:07;44.53;;;25.97;;
4317;SDS011;2172;53.576;9.934;2023-02-23T05:28:36;43.70;;;25.77;;
4317;SDS011;2172;53.576;9.934;2023-02-23T05:31:05;42.97;;;25.30;;
4317;SDS011;2172;53.576;9.934;2023-02-23T05:33:33;46.37;;;26.00;;
4317;SDS011;2172;53.576;9.934;2023-02-23T05:36:07;51.20;;;27.17;;
4317;SDS011;2172;53.576;9.934;2023-02-23T05:38:35;46.00;;;26.07;;
4317;SDS011;2172;53.576;9.934;2023-02-23T05:41:05;55.77;;;27.30;;
4317;SDS011;2172;53.576;9.934;2023-02-23T05:43:33;54.43;;;26.00;;
4317;SDS011;2172;53.576;9.934;2023-02-23T05:46:04;49.00;;;26.20;;
4317;SDS011;2172;53.576;9.934;2023-02-23T05:48:32;44.80;;;26.23;;
4317;SDS011;2172;53.576;9.934;2023-02-23T05:51:00;51.63;;;28.80;;
4317;SDS011;2172;53.576;9.934;2023-02-23T05:53:28;53.00;;;28.70;;
4317;SDS011;2172;53.576;9.934;2023-02-23T05:55:56;57.70;;;32.23;;
4317;SDS011;2172;53.576;9.934;2023-02-23T05:58:25;59.77;;;32.30;;
4317;SDS011;2172;53.576;9.934;2023-02-23T06:00:52;64.00;;;32.90;;
4317;SDS011;2172;53.576;9.934;2023-02-23T06:03:20;70.50;;;33.33;;
4317;SDS011;2172;53.576;9.934;2023-02-23T06:05:51;68.33;;;33.80;;
4317;SDS011;2172;53.576;9.934;2023-02-23T06:08:19;68.30;;;35.60;;
4317;SDS011;2172;53.576;9.934;2023-02-23T06:10:47;73.90;;;35.97;;
4317;SDS011;2172;53.576;9.934;2023-02-23T06:13:14;65.40;;;33.13;;
4317;SDS011;2172;53.576;9.934;2023-02-23T06:15:44;67.13;;;35.47;;
4317;SDS011;2172;53.576;9.934;2023-02-23T06:18:11;67.80;;;36.30;;
4317;SDS011;2172;53.576;9.934;2023-02-23T06:20:39;70.70;;;36.03;;
4317;SDS011;2172;53.576;9.934;2023-02-23T06:23:06;69.70;;;35.30;;
4317;SDS011;2172;53.576;9.934;2023-02-23T06:25:33;73.13;;;35.73;;
4317;SDS011;2172;53.576;9.934;2023-02-23T06:28:01;76.53;;;38.27;;
4317;SDS011;2172;53.576;9.934;2023-02-23T06:30:29;79.57;;;37.10;;
4317;SDS011;2172;53.576;9.934;2023-02-23T06:32:58;81.30;;;35.87;;
4317;SDS011;2172;53.576;9.934;2023-02-23T06:35:25;78.37;;;38.63;;
4317;SDS011;2172;53.576;9.934;2023-02-23T06:37:53;85.57;;;38.07;;
4317;SDS011;2172;53.576;9.934;2023-02-23T06:40:21;84.23;;;38.10;;
4317;SDS011;2172;53.576;9.934;2023-02-23T06:42:48;89.23;;;41.03;;
4317;SDS011;2172;53.576;9.934;2023-02-23T06:45:16;77.17;;;38.40;;
4317;SDS011;2172;53.576;9.934;2023-02-23T06:47:44;75.33;;;37.40;;
4317;SDS011;2172;53.576;9.934;2023-02-23T06:50:13;84.60;;;38.83;;
4317;SDS011;2172;53.576;9.934;2023-02-23T06:52:42;79.93;;;37.60;;
4317;SDS011;2172;53.576;9.934;2023-02-23T06:55:10;92.30;;;38.80;;
4317;SDS011;2172;53.576;9.934;2023-02-23T06:57:38;83.00;;;40.03;;
4317;SDS011;2172;53.576;9.934;2023-02-23T07:00:07;90.53;;;41.80;;
4317;SDS011;2172;53.576;9.934;2023-02-23T07:02:36;96.67;;;41.80;;
4317;SDS011;2172;53.576;9.934;2023-02-23T07:05:04;94.90;;;39.50;;
4317;SDS011;2172;53.576;9.934;2023-02-23T07:07:33;95.20;;;43.00;;
4317;SDS011;2172;53.576;9.934;2023-02-23T07:10:02;89.00;;;42.90;;
4317;SDS011;2172;53.576;9.934;2023-02-23T07:12:30;93.10;;;41.20;;
4317;SDS011;2172;53.576;9.934;2023-02-23T07:14:58;87.60;;;42.07;;
4317;SDS011;2172;53.576;9.934;2023-02-23T07:17:26;86.87;;;41.70;;
4317;SDS011;2172;53.576;9.934;2023-02-23T07:19:53;90.03;;;40.30;;
4317;SDS011;2172;53.576;9.934;2023-02-23T07:22:21;94.50;;;44.40;;
4317;SDS011;2172;53.576;9.934;2023-02-23T07:24:53;88.77;;;41.50;;
4317;SDS011;2172;53.576;9.934;2023-02-23T07:27:21;107.93;;;41.97;;
4317;SDS011;2172;53.576;9.934;2023-02-23T07:29:48;100.20;;;43.33;;
4317;SDS011;2172;53.576;9.934;2023-02-23T07:32:15;95.80;;;41.33;;
4317;SDS011;2172;53.576;9.934;2023-02-23T07:34:43;97.87;;;40.83;;
4317;SDS011;2172;53.576;9.934;2023-02-23T07:37:11;88.77;;;40.93;;
4317;SDS011;2172;53.576;9.934;2023-02-23T07:39:39;97.60;;;39.77;;
4317;SDS011;2172;53.576;9.934;2023-02-23T07:42:08;89.53;;;39.07;;
4317;SDS011;2172;53.576;9.934;2023-02-23T07:44:35;89.27;;;40.10;;
4317;SDS011;2172;53.576;9.934;2023-02-23T07:47:03;85.93;;;38.80;;
4317;SDS011;2172;53.576;9.934;2023-02-23T07:49:31;101.33;;;41.93;;
4317;SDS011;2172;53.576;9.934;2023-02-23T07:51:59;82.03;;;41.13;;
4317;SDS011;2172;53.576;9.934;2023-02-23T07:54:26;87.47;;;40.50;;
4317;SDS011;2172;53.576;9.934;2023-02-23T07:56:54;92.63;;;42.40;;
4317;SDS011;2172;53.576;9.934;2023-02-23T07:59:23;81.33;;;40.07;;
4317;SDS011;2172;53.576;9.934;2023-02-23T08:01:51;87.33;;;37.10;;
4317;SDS011;2172;53.576;9.934;2023-02-23T08:04:18;72.23;;;36.00;;
4317;SDS011;2172;53.576;9.934;2023-02-23T08:06:46;73.73;;;36.63;;
4317;SDS011;2172;53.576;9.934;2023-02-23T08:09:13;75.40;;;34.70;;
4317;SDS011;2172;53.576;9.934;2023-02-23T08:11:41;73.60;;;35.70;;
4317;SDS011;2172;53.576;9.934;2023-02-23T08:14:09;74.10;;;37.27;;
4317;SDS011;2172;53.576;9.934;2023-02-23T08:16:38;87.83;;;39.60;;
4317;SDS011;2172;53.576;9.934;2023-02-23T08:19:06;79.87;;;37.27;;
4317;SDS011;2172;53.576;9.934;2023-02-23T08:29:09;78.60;;;36.83;;
4317;SDS011;2172;53.576;9.934;2023-02-23T08:31:39;77.20;;;37.20;;
4317;SDS011;2172;53.576;9.934;2023-02-23T08:34:06;66.43;;;34.60;;
4317;SDS011;2172;53.576;9.934;2023-02-23T08:36:34;65.30;;;31.97;;
4317;SDS011;2172;53.576;9.934;2023-02-23T08:39:02;63.37;;;32.70;;
4317;SDS011;2172;53.576;9.934;2023-02-23T08:41:31;63.27;;;33.83;;
4317;SDS011;2172;53.576;9.934;2023-02-23T08:43:59;61.07;;;31.20;;
4317;SDS011;2172;53.576;9.934;2023-02-23T08:46:26;59.07;;;31.20;;
4317;SDS011;2172;53.576;9.934;2023-02-23T08:48:55;66.70;;;32.60;;
4317;SDS011;2172;53.576;9.934;2023-02-23T08:51:23;61.80;;;31.20;;
4317;SDS011;2172;53.576;9.934;2023-02-23T08:53:51;62.93;;;34.90;;
4317;SDS011;2172;53.576;9.934;2023-02-23T08:56:21;66.17;;;34.57;;
4317;SDS011;2172;53.576;9.934;2023-02-23T08:58:49;71.90;;;36.40;;
4317;SDS011;2172;53.576;9.934;2023-02-23T09:01:18;73.27;;;37.93;;
4317;SDS011;2172;53.576;9.934;2023-02-23T09:03:46;70.27;;;36.80;;
4317;SDS011;2172;53.576;9.934;2023-02-23T09:06:16;78.67;;;37.03;;
4317;SDS011;2172;53.576;9.934;2023-02-23T09:08:45;76.77;;;39.70;;
4317;SDS011;2172;53.576;9.934;2023-02-23T09:11:12;85.47;;;40.40;;
4317;SDS011;2172;53.576;9.934;2023-02-23T09:13:40;80.83;;;40.50;;
4317;SDS011;2172;53.576;9.934;2023-02-23T09:16:07;90.93;;;43.30;;
4317;SDS011;2172;53.576;9.934;2023-02-23T09:18:35;91.80;;;44.80;;
4317;SDS011;2172;53.576;9.934;2023-02-23T09:21:03;99.50;;;45.83;;
4317;SDS011;2172;53.576;9.934;2023-02-23T09:23:34;95.53;;;44.40;;
4317;SDS011;2172;53.576;9.934;2023-02-23T09:26:02;99.50;;;45.47;;
4317;SDS011;2172;53.576;9.934;2023-02-23T09:28:30;89.23;;;43.07;;
4317;SDS011;2172;53.576;9.934;2023-02-23T09:30:58;103.10;;;45.70;;
4317;SDS011;2172;53.576;9.934;2023-02-23T09:33:31;96.23;;;43.77;;
4317;SDS011;2172;53.576;9.934;2023-02-23T09:35:58;105.77;;;49.07;;
4317;SDS011;2172;53.576;9.934;2023-02-23T09:38:27;108.27;;;47.90;;
4317;SDS011;2172;53.576;9.934;2023-02-23T09:40:56;107.93;;;48.67;;
4317;SDS011;2172;53.576;9.934;2023-02-23T09:43:25;105.97;;;48.57;;
4317;SDS011;2172;53.576;9.934;2023-02-23T09:45:57;110.90;;;48.47;;
4317;SDS011;2172;53.576;9.934;2023-02-23T09:48:33;128.93;;;56.47;;
4317;SDS011;2172;53.576;9.934;2023-02-23T09:51:00;135.53;;;56.67;;
4317;SDS011;2172;53.576;9.934;2023-02-23T09:53:35;138.77;;;52.07;;
4317;SDS011;2172;53.576;9.934;2023-02-23T09:56:09;134.57;;;54.73;;
4317;SDS011;2172;53.576;9.934;2023-02-23T09:58:39;151.90;;;56.67;;
4317;SDS011;2172;53.576;9.934;2023-02-23T10:01:13;128.13;;;51.97;;
4317;SDS011;2172;53.576;9.934;2023-02-23T10:03:53;145.37;;;56.93;;
4317;SDS011;2172;53.576;9.934;2023-02-23T10:06:22;133.23;;;52.10;;
4317;SDS011;2172;53.576;9.934;2023-02-23T10:08:54;125.33;;;49.80;;
4317;SDS011;2172;53.576;9.934;2023-02-23T10:11:31;141.03;;;52.10;;
4317;SDS011;2172;53.576;9.934;2023-02-23T10:14:09;137.90;;;53.87;;
4317;SDS011;2172;53.576;9.934;2023-02-23T10:16:49;123.97;;;50.50;;
4317;SDS011;2172;53.576;9.934;2023-02-23T10:19:26;133.30;;;51.57;;
4317;SDS011;2172;53.576;9.934;2023-02-23T10:21:59;135.00;;;52.10;;
4317;SDS011;2172;53.576;9.934;2023-02-23T10:24:29;132.20;;;51.90;;
4317;SDS011;2172;53.576;9.934;2023-02-23T10:27:04;133.57;;;52.00;;
4317;SDS011;2172;53.576;9.934;2023-02-23T10:29:37;136.87;;;48.37;;
4317;SDS011;2172;53.576;9.934;2023-02-23T10:32:11;138.70;;;52.67;;
4317;SDS011;2172;53.576;9.934;2023-02-23T10:34:45;151.03;;;51.67;;
4317;SDS011;2172;53.576;9.934;2023-02-23T10:37:13;133.70;;;50.87;;
4317;SDS011;2172;53.576;9.934;2023-02-23T10:39:42;138.07;;;50.70;;
4317;SDS011;2172;53.576;9.934;2023-02-23T10:42:13;138.40;;;50.87;;
4317;SDS011;2172;53.576;9.934;2023-02-23T10:44:43;131.27;;;49.57;;
4317;SDS011;2172;53.576;9.934;2023-02-23T10:47:13;151.43;;;51.53;;
4317;SDS011;2172;53.576;9.934;2023-02-23T10:49:43;144.73;;;51.63;;
4317;SDS011;2172;53.576;9.934;2023-02-23T10:52:14;141.73;;;50.47;;
4317;SDS011;2172;53.576;9.934;2023-02-23T10:54:44;141.67;;;52.60;;
4317;SDS011;2172;53.576;9.934;2023-02-23T10:57:19;141.43;;;52.20;;
4317;SDS011;2172;53.576;9.934;2023-02-23T10:59:59;136.27;;;51.83;;
4317;SDS011;2172;53.576;9.934;2023-02-23T11:02:31;115.13;;;42.93;;
4317;SDS011;2172;53.576;9.934;2023-02-23T11:05:00;118.33;;;47.57;;
4317;SDS011;2172;53.576;9.934;2023-02-23T11:07:29;126.43;;;45.30;;
4317;SDS011;2172;53.576;9.934;2023-02-23T11:09:57;126.87;;;44.63;;
4317;SDS011;2172;53.576;9.934;2023-02-23T11:12:34;105.20;;;42.80;;
4317;SDS011;2172;53.576;9.934;2023-02-23T11:15:19;121.67;;;42.70;;
4317;SDS011;2172;53.576;9.934;2023-02-23T11:17:53;107.83;;;40.73;;
4317;SDS011;2172;53.576;9.934;2023-02-23T11:20:23;107.27;;;43.63;;
4317;SDS011;2172;53.576;9.934;2023-02-23T11:22:54;98.83;;;41.30;;
4317;SDS011;2172;53.576;9.934;2023-02-23T11:25:23;93.83;;;38.53;;
4317;SDS011;2172;53.576;9.934;2023-02-23T11:27:55;110.50;;;42.10;;
4317;SDS011;2172;53.576;9.934;2023-02-23T11:30:24;104.00;;;41.00;;
4317;SDS011;2172;53.576;9.934;2023-02-23T11:32:54;100.13;;;37.47;;
4317;SDS011;2172;53.576;9.934;2023-02-23T11:35:27;104.10;;;40.30;;
4317;SDS011;2172;53.576;9.934;2023-02-23T11:37:56;106.10;;;39.87;;
4317;SDS011;2172;53.576;9.934;2023-02-23T11:40:24;100.17;;;38.33;;
4317;SDS011;2172;53.576;9.934;2023-02-23T11:42:56;99.53;;;37.47;;
4317;SDS011;2172;53.576;9.934;2023-02-23T11:45:32;101.60;;;39.63;;
4317;SDS011;2172;53.576;9.934;2023-02-23T11:48:04;94.53;;;37.43;;
4317;SDS011;2172;53.576;9.934;2023-02-23T11:50:33;97.83;;;38.03;;
4317;SDS011;2172;53.576;9.934;2023-02-23T11:53:02;92.30;;;39.03;;
4317;SDS011;2172;53.576;9.934;2023-02-23T11:55:31;84.07;;;37.10;;
4317;SDS011;2172;53.576;9.934;2023-02-23T11:58:08;92.57;;;37.40;;
4317;SDS011;2172;53.576;9.934;2023-02-23T12:00:41;91.53;;;38.00;;
4317;SDS011;2172;53.576;9.934;2023-02-23T12:03:11;94.90;;;38.57;;
4317;SDS011;2172;53.576;9.934;2023-02-23T12:05:48;78.33;;;33.00;;
4317;SDS011;2172;53.576;9.934;2023-02-23T12:08:18;89.87;;;39.03;;
4317;SDS011;2172;53.576;9.934;2023-02-23T12:10:49;88.10;;;38.97;;
4317;SDS011;2172;53.576;9.934;2023-02-23T12:13:23;97.70;;;35.27;;
4317;SDS011;2172;53.576;9.934;2023-02-23T12:15:53;87.27;;;34.70;;
4317;SDS011;2172;53.576;9.934;2023-02-23T12:18:27;77.43;;;34.37;;
4317;SDS011;2172;53.576;9.934;2023-02-23T12:21:05;78.80;;;35.67;;
4317;SDS011;2172;53.576;9.934;2023-02-23T12:23:40;79.17;;;34.37;;
4317;SDS011;2172;53.576;9.934;2023-02-23T12:26:11;76.27;;;34.20;;
4317;SDS011;2172;53.576;9.934;2023-02-23T12:28:44;84.50;;;33.00;;
4317;SDS011;2172;53.576;9.934;2023-02-23T12:31:18;78.10;;;34.67;;
4317;SDS011;2172;53.576;9.934;2023-02-23T12:33:49;84.90;;;34.70;;
4317;SDS011;2172;53.576;9.934;2023-02-23T12:36:22;83.20;;;34.10;;
4317;SDS011;2172;53.576;9.934;2023-02-23T12:38:55;71.20;;;34.00;;
4317;SDS011;2172;53.576;9.934;2023-02-23T12:41:30;85.67;;;34.07;;
4317;SDS011;2172;53.576;9.934;2023-02-23T12:44:03;89.20;;;32.97;;
4317;SDS011;2172;53.576;9.934;2023-02-23T12:46:40;78.57;;;33.57;;
4317;SDS011;2172;53.576;9.934;2023-02-23T12:49:15;79.07;;;32.70;;
4317;SDS011;2172;53.576;9.934;2023-02-23T12:51:46;80.90;;;33.67;;
4317;SDS011;2172;53.576;9.934;2023-02-23T12:54:16;79.43;;;33.30;;
4317;SDS011;2172;53.576;9.934;2023-02-23T12:56:47;76.10;;;33.03;;
4317;SDS011;2172;53.576;9.934;2023-02-23T12:59:23;88.53;;;37.10;;
4317;SDS011;2172;53.576;9.934;2023-02-23T13:02:12;76.47;;;32.27;;
4317;SDS011;2172;53.576;9.934;2023-02-23T13:04:50;75.77;;;33.37;;
4317;SDS011;2172;53.576;9.934;2023-02-23T13:07:34;87.70;;;33.60;;
4317;SDS011;2172;53.576;9.934;2023-02-23T13:10:11;85.90;;;34.10;;
4317;SDS011;2172;53.576;9.934;2023-02-23T13:12:44;76.93;;;34.57;;
4317;SDS011;2172;53.576;9.934;2023-02-23T13:15:21;75.90;;;33.47;;
4317;SDS011;2172;53.576;9.934;2023-02-23T13:17:55;79.50;;;32.67;;
4317;SDS011;2172;53.576;9.934;2023-02-23T13:20:28;63.87;;;30.43;;
4317;SDS011;2172;53.576;9.934;2023-02-23T13:23:02;65.83;;;30.57;;
4317;SDS011;2172;53.576;9.934;2023-02-23T13:25:39;70.77;;;32.47;;
4317;SDS011;2172;53.576;9.934;2023-02-23T13:28:13;73.00;;;30.60;;
4317;SDS011;2172;53.576;9.934;2023-02-23T13:30:44;70.30;;;31.13;;
4317;SDS011;2172;53.576;9.934;2023-02-23T13:33:14;64.43;;;27.27;;
4317;SDS011;2172;53.576;9.934;2023-02-23T13:35:49;70.17;;;31.37;;
4317;SDS011;2172;53.576;9.934;2023-02-23T13:38:17;65.40;;;27.70;;
4317;SDS011;2172;53.576;9.934;2023-02-23T13:40:49;61.17;;;29.27;;
4317;SDS011;2172;53.576;9.934;2023-02-23T13:43:23;71.77;;;30.03;;
4317;SDS011;2172;53.576;9.934;2023-02-23T13:45:58;71.90;;;29.33;;
4317;SDS011;2172;53.576;9.934;2023-02-23T13:48:33;69.60;;;27.73;;
4317;SDS011;2172;53.576;9.934;2023-02-23T13:51:11;59.07;;;29.07;;
4317;SDS011;2172;53.576;9.934;2023-02-23T13:53:44;69.57;;;26.03;;
4317;SDS011;2172;53.576;9.934;2023-02-23T13:56:14;52.67;;;25.90;;
4317;SDS011;2172;53.576;9.934;2023-02-23T13:58:47;60.93;;;26.83;;
4317;SDS011;2172;53.576;9.934;2023-02-23T14:01:19;56.43;;;25.60;;
4317;SDS011;2172;53.576;9.934;2023-02-23T14:03:51;55.30;;;26.67;;
4317;SDS011;2172;53.576;9.934;2023-02-23T14:06:21;53.60;;;23.97;;
4317;SDS011;2172;53.576;9.934;2023-02-23T14:08:52;48.60;;;22.50;;
4317;SDS011;2172;53.576;9.934;2023-02-23T14:11:27;50.60;;;22.60;;
4317;SDS011;2172;53.576;9.934;2023-02-23T14:13:59;56.33;;;24.90;;
4317;SDS011;2172;53.576;9.934;2023-02-23T14:16:29;47.70;;;21.37;;
4317;SDS011;2172;53.576;9.934;2023-02-23T14:19:09;49.07;;;20.93;;
4317;SDS011;2172;53.576;9.934;2023-02-23T14:21:41;45.23;;;21.57;;
4317;SDS011;2172;53.576;9.934;2023-02-23T14:24:18;44.83;;;20.53;;
4317;SDS011;2172;53.576;9.934;2023-02-23T14:32:51;41.03;;;19.03;;
4317;SDS011;2172;53.576;9.934;2023-02-23T14:35:35;39.27;;;16.53;;
4317;SDS011;2172;53.576;9.934;2023-02-23T14:38:14;44.00;;;20.63;;
4317;SDS011;2172;53.576;9.934;2023-02-23T14:40:49;38.50;;;16.23;;
4317;SDS011;2172;53.576;9.934;2023-02-23T14:46:16;44.13;;;17.73;;
4317;SDS011;2172;53.576;9.934;2023-02-23T14:48:55;43.90;;;17.73;;
4317;SDS011;2172;53.576;9.934;2023-02-23T14:51:27;32.37;;;16.07;;
4317;SDS011;2172;53.576;9.934;2023-02-23T14:53:59;33.33;;;16.77;;
4317;SDS011;2172;53.576;9.934;2023-02-23T14:56:29;39.27;;;16.53;;
4317;SDS011;2172;53.576;9.934;2023-02-23T14:58:58;36.13;;;16.10;;
4317;SDS011;2172;53.576;9.934;2023-02-23T15:01:35;36.67;;;16.63;;
4317;SDS011;2172;53.576;9.934;2023-02-23T15:04:09;33.20;;;16.00;;
4317;SDS011;2172;53.576;9.934;2023-02-23T15:06:38;36.80;;;16.40;;
4317;SDS011;2172;53.576;9.934;2023-02-23T15:09:07;33.37;;;17.83;;
4317;SDS011;2172;53.576;9.934;2023-02-23T15:11:37;41.00;;;17.90;;
4317;SDS011;2172;53.576;9.934;2023-02-23T15:14:08;34.03;;;16.43;;
4317;SDS011;2172;53.576;9.934;2023-02-23T15:16:38;34.83;;;16.30;;
4317;SDS011;2172;53.576;9.934;2023-02-23T15:19:11;30.40;;;15.70;;
4317;SDS011;2172;53.576;9.934;2023-02-23T15:21:47;39.63;;;17.77;;
4317;SDS011;2172;53.576;9.934;2023-02-23T15:24:20;30.70;;;14.40;;
4317;SDS011;2172;53.576;9.934;2023-02-23T15:26:50;25.00;;;14.20;;
4317;SDS011;2172;53.576;9.934;2023-02-23T15:29:18;32.90;;;15.37;;
4317;SDS011;2172;53.576;9.934;2023-02-23T15:31:47;37.10;;;15.27;;
4317;SDS011;2172;53.576;9.934;2023-02-23T15:34:18;37.30;;;16.73;;
4317;SDS011;2172;53.576;9.934;2023-02-23T15:36:47;38.20;;;16.40;;
4317;SDS011;2172;53.576;9.934;2023-02-23T15:39:17;47.33;;;19.80;;
4317;SDS011;2172;53.576;9.934;2023-02-23T15:41:47;50.10;;;18.93;;
4317;SDS011;2172;53.576;9.934;2023-02-23T15:44:17;44.40;;;17.67;;